sensor_id;sensor_type;location;lat;lon;timestamp;temperature;humidity
15969;DHT22;8085;53.472;9.794;2022-08-19T00:02:19;21.60;1.00
15969;DHT22;8085;53.472;9.794;2022-08-19T00:04:47;21.60;1.00
15969;DHT22;8085;53.472;9.794;2022-08-19T00:07:18;21.50;1.00
15969;DHT22;8085;53.472;9.794;2022-08-19T00:09:45;21.60;1.00
15969;DHT22;8085;53.472;9.794;2022-08-19T00:12:12;21.50;1.00
15969;DHT22;8085;53.472;9.794;2022-08-19T00:14:39;21.50;1.00
15969;DHT22;8085;53.472;9.794;2022-08-19T00:17:06;21.50;1.00
15969;DHT22;8085;53.472;9.794;2022-08-19T00:19:34;21.50;1.00
15969;DHT22;8085;53.472;9.794;2022-08-19T00:22:03;21.50;1.00
15969;DHT22;8085;53.472;9.794;2022-08-19T00:24:30;21.50;1.00
15969;DHT22;8085;53.472;9.794;2022-08-19T00:26:58;21.50;1.00
15969;DHT22;8085;53.472;9.794;2022-08-19T00:29:27;21.60;1.00
15969;DHT22;8085;53.472;9.794;2022-08-19T00:31:54;21.60;1.00
15969;DHT22;8085;53.472;9.794;2022-08-19T00:34:24;21.60;1.00
15969;DHT22;8085;53.472;9.794;2022-08-19T00:36:53;21.50;1.00
15969;DHT22;8085;53.472;9.794;2022-08-19T00:39:22;21.50;1.00
15969;DHT22;8085;53.472;9.794;2022-08-19T00:41:50;21.60;1.00
15969;DHT22;8085;53.472;9.794;2022-08-19T00:44:20;21.50;1.00
15969;DHT22;8085;53.472;9.794;2022-08-19T00:46:49;21.50;1.00
15969;DHT22;8085;53.472;9.794;2022-08-19T00:49:19;21.50;1.00
15969;DHT22;8085;53.472;9.794;2022-08-19T00:51:50;21.50;1.00
15969;DHT22;8085;53.472;9.794;2022-08-19T00:54:19;21.60;1.00
15969;DHT22;8085;53.472;9.794;2022-08-19T00:56:48;21.60;1.00
15969;DHT22;8085;53.472;9.794;2022-08-19T00:59:16;21.60;1.00
15969;DHT22;8085;53.472;9.794;2022-08-19T01:01:45;21.50;1.00
15969;DHT22;8085;53.472;9.794;2022-08-19T01:04:13;21.50;1.00
15969;DHT22;8085;53.472;9.794;2022-08-19T01:06:40;21.50;1.00
15969;DHT22;8085;53.472;9.794;2022-08-19T01:09:08;21.50;1.00
15969;DHT22;8085;53.472;9.794;2022-08-19T01:11:38;21.50;1.00
15969;DHT22;8085;53.472;9.794;2022-08-19T01:14:09;21.50;1.00
15969;DHT22;8085;53.472;9.794;2022-08-19T01:16:37;21.50;1.00
15969;DHT22;8085;53.472;9.794;2022-08-19T01:19:12;21.60;1.00
15969;DHT22;8085;53.472;9.794;2022-08-19T01:21:45;21.60;1.00
15969;DHT22;8085;53.472;9.794;2022-08-19T01:24:15;21.60;1.00
15969;DHT22;8085;53.472;9.794;2022-08-19T01:26:44;21.50;1.00
15969;DHT22;8085;53.472;9.794;2022-08-19T01:29:11;21.50;1.00
15969;DHT22;8085;53.472;9.794;2022-08-19T01:31:39;21.50;1.00
15969;DHT22;8085;53.472;9.794;2022-08-19T01:34:07;21.50;1.00
15969;DHT22;8085;53.472;9.794;2022-08-19T01:36:36;21.60;1.00
15969;DHT22;8085;53.472;9.794;2022-08-19T01:39:06;21.60;1.00
15969;DHT22;8085;53.472;9.794;2022-08-19T01:41:36;21.60;1.00
15969;DHT22;8085;53.472;9.794;2022-08-19T01:44:03;21.60;1.00
15969;DHT22;8085;53.472;9.794;2022-08-19T01:46:31;21.60;1.00
15969;DHT22;8085;53.472;9.794;2022-08-19T01:48:58;21.60;1.00
15969;DHT22;8085;53.472;9.794;2022-08-19T01:51:25;21.50;1.00
15969;DHT22;8085;53.472;9.794;2022-08-19T01:53:52;21.50;1.00
15969;DHT22;8085;53.472;9.794;2022-08-19T01:56:20;21.50;1.00
15969;DHT22;8085;53.472;9.794;2022-08-19T01:58:51;21.50;1.00
15969;DHT22;8085;53.472;9.794;2022-08-19T02:01:20;21.50;1.00
15969;DHT22;8085;53.472;9.794;2022-08-19T02:03:47;21.50;1.00
15969;DHT22;8085;53.472;9.794;2022-08-19T02:06:14;21.50;1.00
15969;DHT22;8085;53.472;9.794;2022-08-19T02:08:42;21.50;1.00
15969;DHT22;8085;53.472;9.794;2022-08-19T02:11:18;21.50;1.00
15969;DHT22;8085;53.472;9.794;2022-08-19T02:13:47;21.40;1.00
15969;DHT22;8085;53.472;9.794;2022-08-19T02:16:16;21.50;1.00
15969;DHT22;8085;53.472;9.794;2022-08-19T02:18:43;21.50;1.00
15969;DHT22;8085;53.472;9.794;2022-08-19T02:21:10;21.40;1.00
15969;DHT22;8085;53.472;9.794;2022-08-19T02:23:36;21.50;1.00
15969;DHT22;8085;53.472;9.794;2022-08-19T02:26:04;21.40;1.00
15969;DHT22;8085;53.472;9.794;2022-08-19T02:28:31;21.40;1.00
15969;DHT22;8085;53.472;9.794;2022-08-19T02:30:59;21.40;1.00
15969;DHT22;8085;53.472;9.794;2022-08-19T02:33:28;21.40;1.00
15969;DHT22;8085;53.472;9.794;2022-08-19T02:35:55;21.40;1.00
15969;DHT22;8085;53.472;9.794;2022-08-19T02:38:21;21.40;1.00
15969;DHT22;8085;53.472;9.794;2022-08-19T02:40:52;21.40;1.00
15969;DHT22;8085;53.472;9.794;2022-08-19T02:43:20;21.40;1.00
15969;DHT22;8085;53.472;9.794;2022-08-19T02:45:48;21.40;1.00
15969;DHT22;8085;53.472;9.794;2022-08-19T02:48:17;21.40;1.00
15969;DHT22;8085;53.472;9.794;2022-08-19T02:50:45;21.40;1.00
15969;DHT22;8085;53.472;9.794;2022-08-19T02:53:12;21.40;1.00
15969;DHT22;8085;53.472;9.794;2022-08-19T02:55:43;21.50;1.00
15969;DHT22;8085;53.472;9.794;2022-08-19T02:58:11;21.40;1.00
15969;DHT22;8085;53.472;9.794;2022-08-19T03:00:45;21.50;1.00
15969;DHT22;8085;53.472;9.794;2022-08-19T03:03:13;21.50;1.00
15969;DHT22;8085;53.472;9.794;2022-08-19T03:05:42;21.50;1.00
15969;DHT22;8085;53.472;9.794;2022-08-19T03:08:09;21.50;1.00
15969;DHT22;8085;53.472;9.794;2022-08-19T03:10:42;21.50;1.00
15969;DHT22;8085;53.472;9.794;2022-08-19T03:13:11;21.40;1.00
15969;DHT22;8085;53.472;9.794;2022-08-19T03:15:42;21.40;1.00
15969;DHT22;8085;53.472;9.794;2022-08-19T03:18:09;21.40;1.00
15969;DHT22;8085;53.472;9.794;2022-08-19T03:20:42;21.40;1.00
15969;DHT22;8085;53.472;9.794;2022-08-19T03:23:09;21.40;1.00
15969;DHT22;8085;53.472;9.794;2022-08-19T03:25:40;21.40;1.00
15969;DHT22;8085;53.472;9.794;2022-08-19T03:28:09;21.30;1.00
15969;DHT22;8085;53.472;9.794;2022-08-19T03:30:37;21.40;1.00
15969;DHT22;8085;53.472;9.794;2022-08-19T03:33:06;21.40;1.00
15969;DHT22;8085;53.472;9.794;2022-08-19T03:35:33;21.30;1.00
15969;DHT22;8085;53.472;9.794;2022-08-19T03:38:03;20.60;1.00
15969;DHT22;8085;53.472;9.794;2022-08-19T03:40:31;20.80;1.00
15969;DHT22;8085;53.472;9.794;2022-08-19T03:43:00;21.00;1.00
15969;DHT22;8085;53.472;9.794;2022-08-19T03:45:27;21.20;1.00
15969;DHT22;8085;53.472;9.794;2022-08-19T03:47:55;21.20;1.00
15969;DHT22;8085;53.472;9.794;2022-08-19T03:50:22;21.20;1.00
15969;DHT22;8085;53.472;9.794;2022-08-19T03:52:50;21.20;1.00
15969;DHT22;8085;53.472;9.794;2022-08-19T03:55:18;21.20;1.00
15969;DHT22;8085;53.472;9.794;2022-08-19T03:57:45;21.20;1.00
15969;DHT22;8085;53.472;9.794;2022-08-19T04:00:14;21.20;1.00
15969;DHT22;8085;53.472;9.794;2022-08-19T04:02:41;21.20;1.00
15969;DHT22;8085;53.472;9.794;2022-08-19T04:05:09;21.20;1.00
15969;DHT22;8085;53.472;9.794;2022-08-19T04:07:36;21.20;1.00
15969;DHT22;8085;53.472;9.794;2022-08-19T04:10:03;21.10;1.00
15969;DHT22;8085;53.472;9.794;2022-08-19T04:12:32;21.10;1.00
15969;DHT22;8085;53.472;9.794;2022-08-19T04:14:59;21.10;1.00
15969;DHT22;8085;53.472;9.794;2022-08-19T04:17:25;21.00;1.00
15969;DHT22;8085;53.472;9.794;2022-08-19T04:19:52;21.10;1.00
15969;DHT22;8085;53.472;9.794;2022-08-19T04:22:19;21.10;1.00
15969;DHT22;8085;53.472;9.794;2022-08-19T04:24:46;21.10;1.00
15969;DHT22;8085;53.472;9.794;2022-08-19T04:27:13;21.10;1.00
15969;DHT22;8085;53.472;9.794;2022-08-19T04:29:43;21.20;1.00
15969;DHT22;8085;53.472;9.794;2022-08-19T04:32:10;21.10;1.00
15969;DHT22;8085;53.472;9.794;2022-08-19T04:34:37;21.10;1.00
15969;DHT22;8085;53.472;9.794;2022-08-19T04:37:05;21.10;1.00
15969;DHT22;8085;53.472;9.794;2022-08-19T04:39:38;21.10;1.00
15969;DHT22;8085;53.472;9.794;2022-08-19T04:42:22;21.10;1.00
15969;DHT22;8085;53.472;9.794;2022-08-19T04:45:11;21.10;1.00
15969;DHT22;8085;53.472;9.794;2022-08-19T04:47:39;21.10;1.00
15969;DHT22;8085;53.472;9.794;2022-08-19T04:50:07;21.20;1.00
15969;DHT22;8085;53.472;9.794;2022-08-19T04:52:35;21.20;1.00
15969;DHT22;8085;53.472;9.794;2022-08-19T04:55:03;21.10;1.00
15969;DHT22;8085;53.472;9.794;2022-08-19T04:57:32;21.20;1.00
15969;DHT22;8085;53.472;9.794;2022-08-19T04:59:58;21.10;1.00
15969;DHT22;8085;53.472;9.794;2022-08-19T05:02:27;21.10;1.00
15969;DHT22;8085;53.472;9.794;2022-08-19T05:04:57;21.10;1.00
15969;DHT22;8085;53.472;9.794;2022-08-19T05:07:26;21.10;1.00
15969;DHT22;8085;53.472;9.794;2022-08-19T05:09:53;21.10;1.00
15969;DHT22;8085;53.472;9.794;2022-08-19T05:12:20;21.10;1.00
15969;DHT22;8085;53.472;9.794;2022-08-19T05:14:47;21.10;1.00
15969;DHT22;8085;53.472;9.794;2022-08-19T05:17:15;21.20;1.00
15969;DHT22;8085;53.472;9.794;2022-08-19T05:19:43;21.20;1.00
15969;DHT22;8085;53.472;9.794;2022-08-19T05:22:27;21.10;1.00
15969;DHT22;8085;53.472;9.794;2022-08-19T05:25:04;20.90;1.00
15969;DHT22;8085;53.472;9.794;2022-08-19T05:27:31;20.60;1.00
15969;DHT22;8085;53.472;9.794;2022-08-19T05:29:59;20.50;1.00
15969;DHT22;8085;53.472;9.794;2022-08-19T05:32:26;20.20;12.90
15969;DHT22;8085;53.472;9.794;2022-08-19T05:34:55;20.00;25.40
15969;DHT22;8085;53.472;9.794;2022-08-19T05:37:22;20.00;37.40
15969;DHT22;8085;53.472;9.794;2022-08-19T05:39:52;19.90;45.70
15969;DHT22;8085;53.472;9.794;2022-08-19T05:42:20;19.90;46.40
15969;DHT22;8085;53.472;9.794;2022-08-19T05:44:47;19.90;49.00
15969;DHT22;8085;53.472;9.794;2022-08-19T05:47:15;19.90;48.00
15969;DHT22;8085;53.472;9.794;2022-08-19T05:49:44;19.90;49.90
15969;DHT22;8085;53.472;9.794;2022-08-19T05:52:14;19.70;57.20
15969;DHT22;8085;53.472;9.794;2022-08-19T05:54:42;19.70;57.40
15969;DHT22;8085;53.472;9.794;2022-08-19T05:57:13;19.30;92.70
15969;DHT22;8085;53.472;9.794;2022-08-19T05:59:40;18.90;99.90
15969;DHT22;8085;53.472;9.794;2022-08-19T06:02:07;18.70;99.90
15969;DHT22;8085;53.472;9.794;2022-08-19T06:04:34;18.50;99.90
15969;DHT22;8085;53.472;9.794;2022-08-19T06:07:01;18.40;99.90
15969;DHT22;8085;53.472;9.794;2022-08-19T06:09:29;18.70;99.90
15969;DHT22;8085;53.472;9.794;2022-08-19T06:11:58;18.70;99.90
15969;DHT22;8085;53.472;9.794;2022-08-19T06:14:27;18.60;99.90
15969;DHT22;8085;53.472;9.794;2022-08-19T06:16:54;18.40;99.90
15969;DHT22;8085;53.472;9.794;2022-08-19T06:19:22;18.40;99.90
15969;DHT22;8085;53.472;9.794;2022-08-19T06:21:51;18.50;99.90
15969;DHT22;8085;53.472;9.794;2022-08-19T06:24:21;18.50;99.90
15969;DHT22;8085;53.472;9.794;2022-08-19T06:26:51;18.70;99.90
15969;DHT22;8085;53.472;9.794;2022-08-19T06:29:20;18.60;99.90
15969;DHT22;8085;53.472;9.794;2022-08-19T06:31:49;18.80;99.90
15969;DHT22;8085;53.472;9.794;2022-08-19T06:34:17;18.90;99.90
15969;DHT22;8085;53.472;9.794;2022-08-19T06:36:46;18.70;99.90
15969;DHT22;8085;53.472;9.794;2022-08-19T06:39:15;18.50;99.90
15969;DHT22;8085;53.472;9.794;2022-08-19T06:41:45;18.60;99.90
15969;DHT22;8085;53.472;9.794;2022-08-19T06:44:14;18.50;99.90
15969;DHT22;8085;53.472;9.794;2022-08-19T06:46:42;18.60;99.90
15969;DHT22;8085;53.472;9.794;2022-08-19T06:49:09;18.80;99.90
15969;DHT22;8085;53.472;9.794;2022-08-19T06:51:40;18.90;99.90
15969;DHT22;8085;53.472;9.794;2022-08-19T06:54:07;18.90;99.90
15969;DHT22;8085;53.472;9.794;2022-08-19T06:56:35;18.90;99.90
15969;DHT22;8085;53.472;9.794;2022-08-19T06:59:03;18.90;99.90
15969;DHT22;8085;53.472;9.794;2022-08-19T07:01:34;19.20;99.90
15969;DHT22;8085;53.472;9.794;2022-08-19T07:04:04;19.30;97.00
15969;DHT22;8085;53.472;9.794;2022-08-19T07:06:31;19.30;95.80
15969;DHT22;8085;53.472;9.794;2022-08-19T07:08:58;19.40;94.00
15969;DHT22;8085;53.472;9.794;2022-08-19T07:11:26;19.40;91.70
15969;DHT22;8085;53.472;9.794;2022-08-19T07:13:53;19.50;90.70
15969;DHT22;8085;53.472;9.794;2022-08-19T07:16:20;19.50;82.60
15969;DHT22;8085;53.472;9.794;2022-08-19T07:18:50;19.50;75.40
15969;DHT22;8085;53.472;9.794;2022-08-19T07:21:20;19.50;73.80
15969;DHT22;8085;53.472;9.794;2022-08-19T07:23:48;19.50;69.00
15969;DHT22;8085;53.472;9.794;2022-08-19T07:26:18;19.50;67.10
15969;DHT22;8085;53.472;9.794;2022-08-19T07:28:47;19.60;61.40
15969;DHT22;8085;53.472;9.794;2022-08-19T07:31:16;19.60;58.10
15969;DHT22;8085;53.472;9.794;2022-08-19T07:33:44;19.50;58.80
15969;DHT22;8085;53.472;9.794;2022-08-19T07:36:16;19.80;53.10
15969;DHT22;8085;53.472;9.794;2022-08-19T07:38:46;20.20;26.30
15969;DHT22;8085;53.472;9.794;2022-08-19T07:41:17;20.40;5.40
15969;DHT22;8085;53.472;9.794;2022-08-19T07:43:44;20.50;1.00
15969;DHT22;8085;53.472;9.794;2022-08-19T07:46:12;20.70;1.00
15969;DHT22;8085;53.472;9.794;2022-08-19T07:48:40;20.80;1.00
15969;DHT22;8085;53.472;9.794;2022-08-19T07:51:09;20.80;1.00
15969;DHT22;8085;53.472;9.794;2022-08-19T07:53:38;20.70;1.00
15969;DHT22;8085;53.472;9.794;2022-08-19T07:56:05;20.70;1.00
15969;DHT22;8085;53.472;9.794;2022-08-19T07:58:36;20.70;1.00
15969;DHT22;8085;53.472;9.794;2022-08-19T08:01:04;20.80;1.00
15969;DHT22;8085;53.472;9.794;2022-08-19T08:03:32;20.80;1.00
15969;DHT22;8085;53.472;9.794;2022-08-19T08:06:16;20.70;1.00
15969;DHT22;8085;53.472;9.794;2022-08-19T08:09:04;20.70;1.00
15969;DHT22;8085;53.472;9.794;2022-08-19T08:11:37;20.80;1.00
15969;DHT22;8085;53.472;9.794;2022-08-19T08:14:05;20.70;1.00
15969;DHT22;8085;53.472;9.794;2022-08-19T08:16:34;20.80;1.00
15969;DHT22;8085;53.472;9.794;2022-08-19T08:19:03;20.80;1.00
15969;DHT22;8085;53.472;9.794;2022-08-19T08:21:31;20.80;1.00
15969;DHT22;8085;53.472;9.794;2022-08-19T08:23:57;20.80;1.00
15969;DHT22;8085;53.472;9.794;2022-08-19T08:26:26;20.80;1.00
15969;DHT22;8085;53.472;9.794;2022-08-19T08:28:53;20.80;1.00
15969;DHT22;8085;53.472;9.794;2022-08-19T08:31:20;20.80;1.00
15969;DHT22;8085;53.472;9.794;2022-08-19T08:33:47;20.90;1.00
15969;DHT22;8085;53.472;9.794;2022-08-19T08:36:15;20.80;1.00
15969;DHT22;8085;53.472;9.794;2022-08-19T08:38:43;20.80;1.00
15969;DHT22;8085;53.472;9.794;2022-08-19T08:41:16;20.80;1.00
15969;DHT22;8085;53.472;9.794;2022-08-19T08:43:49;20.90;1.00
15969;DHT22;8085;53.472;9.794;2022-08-19T08:46:22;20.90;1.00
15969;DHT22;8085;53.472;9.794;2022-08-19T08:48:56;20.90;1.00
15969;DHT22;8085;53.472;9.794;2022-08-19T08:51:27;20.90;1.00
15969;DHT22;8085;53.472;9.794;2022-08-19T08:53:56;20.90;1.00
15969;DHT22;8085;53.472;9.794;2022-08-19T08:56:23;20.90;1.00
15969;DHT22;8085;53.472;9.794;2022-08-19T08:58:57;20.90;1.00
15969;DHT22;8085;53.472;9.794;2022-08-19T09:01:25;20.90;1.00
15969;DHT22;8085;53.472;9.794;2022-08-19T09:03:53;20.90;1.00
15969;DHT22;8085;53.472;9.794;2022-08-19T09:06:27;20.90;1.00
15969;DHT22;8085;53.472;9.794;2022-08-19T09:09:01;21.00;1.00
15969;DHT22;8085;53.472;9.794;2022-08-19T09:11:44;20.90;1.00
15969;DHT22;8085;53.472;9.794;2022-08-19T09:14:22;21.00;1.00
15969;DHT22;8085;53.472;9.794;2022-08-19T09:16:54;21.00;1.00
15969;DHT22;8085;53.472;9.794;2022-08-19T09:19:21;21.00;1.00
15969;DHT22;8085;53.472;9.794;2022-08-19T09:21:47;21.00;1.00
15969;DHT22;8085;53.472;9.794;2022-08-19T09:24:15;21.00;1.00
15969;DHT22;8085;53.472;9.794;2022-08-19T09:26:42;21.10;1.00
15969;DHT22;8085;53.472;9.794;2022-08-19T09:29:10;21.10;1.00
15969;DHT22;8085;53.472;9.794;2022-08-19T09:31:39;21.10;1.00
15969;DHT22;8085;53.472;9.794;2022-08-19T09:34:06;21.10;1.00
15969;DHT22;8085;53.472;9.794;2022-08-19T09:36:34;21.00;1.00
15969;DHT22;8085;53.472;9.794;2022-08-19T09:39:03;20.80;1.00
15969;DHT22;8085;53.472;9.794;2022-08-19T09:41:30;20.70;1.00
15969;DHT22;8085;53.472;9.794;2022-08-19T09:43:58;20.60;1.00
15969;DHT22;8085;53.472;9.794;2022-08-19T09:46:28;20.50;1.00
15969;DHT22;8085;53.472;9.794;2022-08-19T09:48:59;20.40;4.10
15969;DHT22;8085;53.472;9.794;2022-08-19T09:51:27;20.50;4.70
15969;DHT22;8085;53.472;9.794;2022-08-19T09:53:59;20.40;9.50
15969;DHT22;8085;53.472;9.794;2022-08-19T09:56:26;20.40;8.70
15969;DHT22;8085;53.472;9.794;2022-08-19T09:58:52;20.40;11.90
15969;DHT22;8085;53.472;9.794;2022-08-19T10:01:21;20.40;13.10
15969;DHT22;8085;53.472;9.794;2022-08-19T10:03:50;20.50;13.00
15969;DHT22;8085;53.472;9.794;2022-08-19T10:06:20;20.50;17.20
15969;DHT22;8085;53.472;9.794;2022-08-19T10:08:48;20.40;23.60
15969;DHT22;8085;53.472;9.794;2022-08-19T10:11:15;20.40;31.90
15969;DHT22;8085;53.472;9.794;2022-08-19T10:13:43;20.40;28.30
15969;DHT22;8085;53.472;9.794;2022-08-19T10:16:13;20.50;25.70
15969;DHT22;8085;53.472;9.794;2022-08-19T10:18:41;20.40;30.80
15969;DHT22;8085;53.472;9.794;2022-08-19T10:21:11;20.40;28.90
15969;DHT22;8085;53.472;9.794;2022-08-19T10:23:43;20.80;7.90
15969;DHT22;8085;53.472;9.794;2022-08-19T10:26:13;21.00;1.00
15969;DHT22;8085;53.472;9.794;2022-08-19T10:28:40;21.10;1.00
15969;DHT22;8085;53.472;9.794;2022-08-19T10:31:09;21.30;1.00
15969;DHT22;8085;53.472;9.794;2022-08-19T10:33:38;21.40;1.00
15969;DHT22;8085;53.472;9.794;2022-08-19T10:36:07;21.40;1.00
15969;DHT22;8085;53.472;9.794;2022-08-19T10:38:35;21.40;1.00
15969;DHT22;8085;53.472;9.794;2022-08-19T10:41:11;21.40;1.00
15969;DHT22;8085;53.472;9.794;2022-08-19T10:43:38;21.50;1.00
15969;DHT22;8085;53.472;9.794;2022-08-19T10:46:06;21.50;1.00
15969;DHT22;8085;53.472;9.794;2022-08-19T10:48:33;21.50;1.00
15969;DHT22;8085;53.472;9.794;2022-08-19T10:51:00;21.50;1.00
15969;DHT22;8085;53.472;9.794;2022-08-19T10:53:45;21.50;1.00
15969;DHT22;8085;53.472;9.794;2022-08-19T10:56:13;21.60;1.00
15969;DHT22;8085;53.472;9.794;2022-08-19T10:58:58;21.60;1.00
15969;DHT22;8085;53.472;9.794;2022-08-19T11:01:25;21.60;1.00
15969;DHT22;8085;53.472;9.794;2022-08-19T11:03:52;21.70;1.00
15969;DHT22;8085;53.472;9.794;2022-08-19T11:06:19;21.80;1.00
15969;DHT22;8085;53.472;9.794;2022-08-19T11:08:46;21.80;1.00
15969;DHT22;8085;53.472;9.794;2022-08-19T11:11:15;21.90;1.00
15969;DHT22;8085;53.472;9.794;2022-08-19T11:13:43;21.90;1.00
15969;DHT22;8085;53.472;9.794;2022-08-19T11:16:15;21.90;1.00
15969;DHT22;8085;53.472;9.794;2022-08-19T11:18:45;21.80;1.00
15969;DHT22;8085;53.472;9.794;2022-08-19T11:21:14;21.80;1.00
15969;DHT22;8085;53.472;9.794;2022-08-19T11:23:42;21.80;1.00
15969;DHT22;8085;53.472;9.794;2022-08-19T11:26:10;21.90;1.00
15969;DHT22;8085;53.472;9.794;2022-08-19T11:28:39;21.90;1.00
15969;DHT22;8085;53.472;9.794;2022-08-19T11:31:10;22.00;1.00
15969;DHT22;8085;53.472;9.794;2022-08-19T11:33:37;21.90;1.00
15969;DHT22;8085;53.472;9.794;2022-08-19T11:36:05;21.90;1.00
15969;DHT22;8085;53.472;9.794;2022-08-19T11:38:32;21.90;1.00
15969;DHT22;8085;53.472;9.794;2022-08-19T11:41:02;21.90;1.00
15969;DHT22;8085;53.472;9.794;2022-08-19T11:43:29;21.90;1.00
15969;DHT22;8085;53.472;9.794;2022-08-19T11:45:58;21.90;1.00
15969;DHT22;8085;53.472;9.794;2022-08-19T11:48:25;21.90;1.00
15969;DHT22;8085;53.472;9.794;2022-08-19T11:50:53;21.90;1.00
15969;DHT22;8085;53.472;9.794;2022-08-19T11:53:22;21.90;1.00
15969;DHT22;8085;53.472;9.794;2022-08-19T11:55:50;22.00;1.00
15969;DHT22;8085;53.472;9.794;2022-08-19T11:58:21;22.00;1.00
15969;DHT22;8085;53.472;9.794;2022-08-19T12:00:48;22.10;1.00
15969;DHT22;8085;53.472;9.794;2022-08-19T12:03:17;22.10;1.00
15969;DHT22;8085;53.472;9.794;2022-08-19T12:05:43;22.20;1.00
15969;DHT22;8085;53.472;9.794;2022-08-19T12:08:10;22.20;1.00
15969;DHT22;8085;53.472;9.794;2022-08-19T12:10:39;22.20;1.00
15969;DHT22;8085;53.472;9.794;2022-08-19T12:13:06;22.20;1.00
15969;DHT22;8085;53.472;9.794;2022-08-19T12:15:35;22.20;1.00
15969;DHT22;8085;53.472;9.794;2022-08-19T12:18:03;22.20;1.00
15969;DHT22;8085;53.472;9.794;2022-08-19T12:20:34;22.20;1.00
15969;DHT22;8085;53.472;9.794;2022-08-19T12:23:01;22.20;1.00
15969;DHT22;8085;53.472;9.794;2022-08-19T12:25:28;22.20;1.00
15969;DHT22;8085;53.472;9.794;2022-08-19T12:27:56;22.30;1.00
15969;DHT22;8085;53.472;9.794;2022-08-19T12:30:23;22.30;1.00
15969;DHT22;8085;53.472;9.794;2022-08-19T12:32:50;22.20;1.00
15969;DHT22;8085;53.472;9.794;2022-08-19T12:35:18;22.20;1.00
15969;DHT22;8085;53.472;9.794;2022-08-19T12:37:47;22.20;1.00
15969;DHT22;8085;53.472;9.794;2022-08-19T12:40:16;22.20;1.00
15969;DHT22;8085;53.472;9.794;2022-08-19T12:42:43;22.30;1.00
15969;DHT22;8085;53.472;9.794;2022-08-19T12:45:12;22.20;1.00
15969;DHT22;8085;53.472;9.794;2022-08-19T12:47:39;22.20;1.00
15969;DHT22;8085;53.472;9.794;2022-08-19T12:50:07;22.10;1.00
15969;DHT22;8085;53.472;9.794;2022-08-19T12:52:35;22.10;1.00
15969;DHT22;8085;53.472;9.794;2022-08-19T12:55:05;22.20;1.00
15969;DHT22;8085;53.472;9.794;2022-08-19T12:57:33;22.20;1.00
15969;DHT22;8085;53.472;9.794;2022-08-19T13:00:04;22.30;1.00
15969;DHT22;8085;53.472;9.794;2022-08-19T13:02:34;22.30;1.00
15969;DHT22;8085;53.472;9.794;2022-08-19T13:05:02;22.20;1.00
15969;DHT22;8085;53.472;9.794;2022-08-19T13:07:29;22.20;1.00
15969;DHT22;8085;53.472;9.794;2022-08-19T13:09:57;22.30;1.00
15969;DHT22;8085;53.472;9.794;2022-08-19T13:12:26;22.30;1.00
15969;DHT22;8085;53.472;9.794;2022-08-19T13:14:53;22.30;1.00
15969;DHT22;8085;53.472;9.794;2022-08-19T13:17:20;22.30;1.00
15969;DHT22;8085;53.472;9.794;2022-08-19T13:19:47;22.30;1.00
15969;DHT22;8085;53.472;9.794;2022-08-19T13:22:14;22.40;1.00
15969;DHT22;8085;53.472;9.794;2022-08-19T13:24:41;22.40;1.00
15969;DHT22;8085;53.472;9.794;2022-08-19T13:27:08;22.40;1.00
15969;DHT22;8085;53.472;9.794;2022-08-19T13:29:36;22.40;1.00
15969;DHT22;8085;53.472;9.794;2022-08-19T13:32:21;22.50;1.00
15969;DHT22;8085;53.472;9.794;2022-08-19T13:35:05;22.40;1.00
15969;DHT22;8085;53.472;9.794;2022-08-19T13:37:32;22.40;1.00
15969;DHT22;8085;53.472;9.794;2022-08-19T13:40:10;22.40;1.00
15969;DHT22;8085;53.472;9.794;2022-08-19T13:42:38;22.50;1.00
15969;DHT22;8085;53.472;9.794;2022-08-19T13:45:07;22.50;1.00
15969;DHT22;8085;53.472;9.794;2022-08-19T13:47:34;22.50;1.00
15969;DHT22;8085;53.472;9.794;2022-08-19T13:50:03;22.50;1.00
15969;DHT22;8085;53.472;9.794;2022-08-19T13:52:30;22.50;1.00
15969;DHT22;8085;53.472;9.794;2022-08-19T13:54:57;22.50;1.00
15969;DHT22;8085;53.472;9.794;2022-08-19T13:57:24;22.60;1.00
15969;DHT22;8085;53.472;9.794;2022-08-19T13:59:51;22.60;1.00
15969;DHT22;8085;53.472;9.794;2022-08-19T14:02:19;22.60;1.00
15969;DHT22;8085;53.472;9.794;2022-08-19T14:04:46;22.60;1.00
15969;DHT22;8085;53.472;9.794;2022-08-19T14:07:13;22.60;1.00
15969;DHT22;8085;53.472;9.794;2022-08-19T14:09:40;22.70;1.00
15969;DHT22;8085;53.472;9.794;2022-08-19T14:12:07;22.70;1.00
15969;DHT22;8085;53.472;9.794;2022-08-19T14:14:36;22.70;1.00
15969;DHT22;8085;53.472;9.794;2022-08-19T14:17:06;22.70;1.00
15969;DHT22;8085;53.472;9.794;2022-08-19T14:19:34;22.70;1.00
15969;DHT22;8085;53.472;9.794;2022-08-19T14:22:01;22.80;1.00
15969;DHT22;8085;53.472;9.794;2022-08-19T14:24:29;22.80;1.00
15969;DHT22;8085;53.472;9.794;2022-08-19T14:26:57;22.80;1.00
15969;DHT22;8085;53.472;9.794;2022-08-19T14:29:24;22.70;1.00
15969;DHT22;8085;53.472;9.794;2022-08-19T14:31:52;22.70;1.00
15969;DHT22;8085;53.472;9.794;2022-08-19T14:34:19;22.70;1.00
15969;DHT22;8085;53.472;9.794;2022-08-19T14:36:49;22.70;1.00
15969;DHT22;8085;53.472;9.794;2022-08-19T14:39:15;22.70;1.00
15969;DHT22;8085;53.472;9.794;2022-08-19T14:41:42;22.70;1.00
15969;DHT22;8085;53.472;9.794;2022-08-19T14:44:10;22.70;1.00
15969;DHT22;8085;53.472;9.794;2022-08-19T14:46:38;22.80;1.00
15969;DHT22;8085;53.472;9.794;2022-08-19T14:49:06;22.80;1.00
15969;DHT22;8085;53.472;9.794;2022-08-19T14:51:33;22.80;1.00
15969;DHT22;8085;53.472;9.794;2022-08-19T14:54:01;22.80;1.00
15969;DHT22;8085;53.472;9.794;2022-08-19T14:56:29;22.80;1.00
15969;DHT22;8085;53.472;9.794;2022-08-19T14:58:56;22.80;1.00
15969;DHT22;8085;53.472;9.794;2022-08-19T15:01:26;22.80;1.00
15969;DHT22;8085;53.472;9.794;2022-08-19T15:03:53;22.90;1.00
15969;DHT22;8085;53.472;9.794;2022-08-19T15:06:21;23.00;1.00
15969;DHT22;8085;53.472;9.794;2022-08-19T15:08:48;23.10;1.00
15969;DHT22;8085;53.472;9.794;2022-08-19T15:11:21;23.70;99.90
15969;DHT22;8085;53.472;9.794;2022-08-19T15:13:49;24.40;1.00
15969;DHT22;8085;53.472;9.794;2022-08-19T15:16:17;24.70;99.90
15969;DHT22;8085;53.472;9.794;2022-08-19T15:18:45;24.90;1.00
15969;DHT22;8085;53.472;9.794;2022-08-19T15:21:13;25.10;1.00
15969;DHT22;8085;53.472;9.794;2022-08-19T15:23:43;25.10;87.40
15969;DHT22;8085;53.472;9.794;2022-08-19T15:26:10;25.00;99.90
15969;DHT22;8085;53.472;9.794;2022-08-19T15:28:39;25.10;99.90
15969;DHT22;8085;53.472;9.794;2022-08-19T15:31:06;25.10;1.00
15969;DHT22;8085;53.472;9.794;2022-08-19T15:33:35;25.10;1.00
15969;DHT22;8085;53.472;9.794;2022-08-19T15:36:03;25.10;1.00
15969;DHT22;8085;53.472;9.794;2022-08-19T15:38:31;25.10;1.00
15969;DHT22;8085;53.472;9.794;2022-08-19T15:40:59;25.30;99.90
15969;DHT22;8085;53.472;9.794;2022-08-19T15:43:49;25.30;99.90
15969;DHT22;8085;53.472;9.794;2022-08-19T15:46:17;24.90;1.00
15969;DHT22;8085;53.472;9.794;2022-08-19T15:48:46;24.70;1.00
15969;DHT22;8085;53.472;9.794;2022-08-19T15:51:13;25.10;1.00
15969;DHT22;8085;53.472;9.794;2022-08-19T15:53:42;25.00;99.90
15969;DHT22;8085;53.472;9.794;2022-08-19T15:56:09;25.10;1.00
15969;DHT22;8085;53.472;9.794;2022-08-19T15:58:37;25.30;99.90
15969;DHT22;8085;53.472;9.794;2022-08-19T16:01:23;25.40;1.00
15969;DHT22;8085;53.472;9.794;2022-08-19T16:04:07;25.50;1.00
15969;DHT22;8085;53.472;9.794;2022-08-19T16:06:53;25.60;99.90
15969;DHT22;8085;53.472;9.794;2022-08-19T16:09:23;25.60;99.90
15969;DHT22;8085;53.472;9.794;2022-08-19T16:11:54;25.20;1.00